Time;durP1;ratioP1;P1;durP2;ratioP2;P2;SDS_P1;SDS_P2;PMS_P1;PMS_P2;Temp;Humidity;BMP_temperature;BMP_pressure;BME280_temperature;BME280_humidity;BME280_pressure;Samples;Min_cycle;Max_cycle;Signal;HPM_P1;HPM_P2
2022/07/16 00:02:02;;;;;;;;;;;15.80;99.90;;;;;;6251593;22;19923;-84
2022/07/16 00:04:27;;;;;;;;;;;15.80;99.90;;;;;;6271788;22;19919;-83
2022/07/16 00:06:53;;;;;;;;;;;15.80;99.90;;;;;;6271747;22;19925;-81
2022/07/16 00:09:19;;;;;;;;;;;15.70;99.90;;;;;;6247175;22;19925;-83
2022/07/16 00:11:45;;;;;;;;;;;15.80;99.90;;;;;;6248191;22;20361;-87
2022/07/16 00:14:13;;;;;;;;;;;15.80;99.90;;;;;;6246730;22;19921;-85
2022/07/16 00:16:40;;;;;;;;;;;15.80;99.90;;;;;;6247096;22;20239;-84
2022/07/16 00:19:23;;;;;;;;;;;15.80;99.90;;;;;;6272645;22;19915;-84
2022/07/16 00:21:51;;;;;;;;;;;15.80;99.90;;;;;;6274693;22;19918;-81
2022/07/16 00:24:18;;;;;;;;;;;15.80;99.90;;;;;;6276479;22;19923;-84
2022/07/16 00:26:45;;;;;;;;;;;15.80;99.90;;;;;;6276492;22;19919;-84
2022/07/16 00:29:11;;;;;;;;;;;15.90;99.90;;;;;;6246262;22;19991;-81
2022/07/16 00:31:37;;;;;;;;;;;15.80;99.90;;;;;;6274174;22;19922;-82
2022/07/16 00:34:09;;;;;;;;;;;15.80;99.90;;;;;;6246920;22;20315;-78
2022/07/16 00:36:36;;;;;;;;;;;15.70;99.90;;;;;;6272351;22;19922;-81
2022/07/16 00:39:03;;;;;;;;;;;15.60;99.90;;;;;;6274358;22;19925;-88
2022/07/16 00:41:28;;;;;;;;;;;15.50;99.90;;;;;;6248913;22;19923;-87
2022/07/16 00:44:00;;;;;;;;;;;15.40;99.90;;;;;;6248216;22;19921;-80
2022/07/16 00:46:26;;;;;;;;;;;15.30;99.90;;;;;;6272898;22;20488;-81
2022/07/16 00:48:52;;;;;;;;;;;15.30;99.90;;;;;;6271734;22;19964;-85
2022/07/16 00:51:17;;;;;;;;;;;15.20;99.90;;;;;;6271940;22;19921;-81
2022/07/16 00:53:44;;;;;;;;;;;15.20;99.90;;;;;;6222860;22;20657;-80
2022/07/16 00:56:11;;;;;;;;;;;15.20;99.90;;;;;;6273281;22;20280;-81
2022/07/16 00:58:37;;;;;;;;;;;15.10;99.90;;;;;;6247374;22;19915;-82
2022/07/16 01:01:06;;;;;;;;;;;15.10;99.90;;;;;;6248616;22;19919;-82
2022/07/16 01:03:32;;;;;;;;;;;15.10;99.90;;;;;;6272380;22;19990;-81
2022/07/16 01:05:58;;;;;;;;;;;15.10;99.90;;;;;;6272329;22;19945;-81
2022/07/16 01:08:24;;;;;;;;;;;15.10;99.90;;;;;;6247254;22;20410;-79
2022/07/16 01:10:51;;;;;;;;;;;15.10;99.90;;;;;;6248545;22;19915;-80
2022/07/16 01:13:17;;;;;;;;;;;15.10;99.90;;;;;;6272724;22;19919;-81
2022/07/16 01:15:43;;;;;;;;;;;15.10;99.90;;;;;;6272690;22;19990;-80
2022/07/16 01:18:08;;;;;;;;;;;15.10;99.90;;;;;;6246667;22;19946;-79
2022/07/16 01:20:34;;;;;;;;;;;15.10;99.90;;;;;;6197078;22;19919;-81
2022/07/16 01:23:00;;;;;;;;;;;15.10;99.90;;;;;;6242140;22;19923;-80
2022/07/16 01:25:26;;;;;;;;;;;15.10;99.90;;;;;;6192036;22;19927;-80
2022/07/16 01:27:51;;;;;;;;;;;15.00;99.90;;;;;;6293119;22;19923;-82
2022/07/16 01:30:17;;;;;;;;;;;15.00;99.90;;;;;;6242147;22;19918;-79
2022/07/16 01:32:43;;;;;;;;;;;15.10;99.90;;;;;;6267035;22;19976;-80
2022/07/16 01:35:09;;;;;;;;;;;15.10;99.90;;;;;;6240156;22;19950;-81
2022/07/16 01:37:35;;;;;;;;;;;15.00;99.90;;;;;;6293098;22;19920;-82
2022/07/16 01:40:01;;;;;;;;;;;15.00;99.90;;;;;;6216653;22;19923;-79
2022/07/16 01:42:26;;;;;;;;;;;15.00;99.90;;;;;;6217150;22;19911;-79
2022/07/16 01:44:52;;;;;;;;;;;15.00;99.90;;;;;;6293084;22;19926;-80
2022/07/16 01:47:18;;;;;;;;;;;15.00;99.90;;;;;;6241707;22;19915;-80
2022/07/16 01:49:45;;;;;;;;;;;15.00;99.90;;;;;;6214548;22;19955;-80
2022/07/16 01:52:13;;;;;;;;;;;15.00;99.90;;;;;;6217029;22;19951;-79
2022/07/16 01:54:43;;;;;;;;;;;15.00;99.90;;;;;;6216663;22;19919;-80
2022/07/16 01:57:09;;;;;;;;;;;15.00;99.90;;;;;;6267761;22;20017;-81
2022/07/16 01:59:35;;;;;;;;;;;15.00;99.90;;;;;;6216259;22;19915;-80
2022/07/16 02:02:01;;;;;;;;;;;15.00;99.90;;;;;;6216629;22;20351;-81
2022/07/16 02:04:26;;;;;;;;;;;14.90;99.90;;;;;;6241123;22;19915;-80
2022/07/16 02:12:33;;;;;;;;;;;14.90;99.90;;;;;;6298684;22;19922;-83
2022/07/16 02:14:58;;;;;;;;;;;14.80;99.90;;;;;;6247190;22;20338;-81
2022/07/16 02:17:25;;;;;;;;;;;14.80;99.90;;;;;;6247973;22;19930;-82
2022/07/16 02:19:51;;;;;;;;;;;14.70;99.90;;;;;;6246474;22;19929;-82
2022/07/16 02:22:16;;;;;;;;;;;14.70;99.90;;;;;;6222939;22;19915;-82
2022/07/16 02:24:42;;;;;;;;;;;14.60;99.90;;;;;;6273923;22;19926;-82
2022/07/16 02:27:11;;;;;;;;;;;14.60;99.90;;;;;;6251093;22;19915;-82
2022/07/16 02:29:38;;;;;;;;;;;14.50;99.90;;;;;;6249402;22;19941;-84
2022/07/16 02:32:07;;;;;;;;;;;14.50;99.90;;;;;;6250132;22;19927;-81
2022/07/16 02:34:33;;;;;;;;;;;14.40;99.90;;;;;;6247780;22;19919;-81
2022/07/16 02:36:59;;;;;;;;;;;14.40;99.90;;;;;;6272939;22;19965;-81
2022/07/16 02:39:25;;;;;;;;;;;14.30;99.90;;;;;;6246186;22;19922;-83
2022/07/16 02:42:09;;;;;;;;;;;13.90;99.90;;;;;;6247603;22;19919;-82
2022/07/16 02:44:35;;;;;;;;;;;14.20;99.90;;;;;;6247758;22;19939;-83
2022/07/16 02:47:01;;;;;;;;;;;14.20;99.90;;;;;;6247761;22;19915;-83
2022/07/16 02:49:27;;;;;;;;;;;14.10;99.90;;;;;;6246685;22;19914;-83
2022/07/16 02:51:53;;;;;;;;;;;14.10;99.90;;;;;;6247217;22;19915;-83
2022/07/16 02:54:21;;;;;;;;;;;14.10;99.90;;;;;;6223453;22;19965;-82
2022/07/16 02:56:47;;;;;;;;;;;14.00;99.90;;;;;;6302392;22;19982;-84
2022/07/16 02:59:13;;;;;;;;;;;14.00;99.90;;;;;;6223226;22;19953;-82
2022/07/16 03:01:39;;;;;;;;;;;14.00;99.90;;;;;;6247169;22;19915;-82
2022/07/16 03:04:05;;;;;;;;;;;14.00;99.90;;;;;;6246491;22;19918;-78
2022/07/16 03:06:30;;;;;;;;;;;14.00;99.90;;;;;;6222296;22;20228;-84
2022/07/16 03:09:00;;;;;;;;;;;14.00;99.90;;;;;;6301131;22;19914;-83
2022/07/16 03:11:26;;;;;;;;;;;13.90;99.90;;;;;;6245382;22;19926;-79
2022/07/16 03:13:52;;;;;;;;;;;13.90;99.90;;;;;;6262079;22;19919;-82
2022/07/16 03:16:18;;;;;;;;;;;13.80;99.90;;;;;;6268133;22;19921;-81
2022/07/16 03:18:47;;;;;;;;;;;13.90;99.90;;;;;;6255735;22;19919;-79
2022/07/16 03:21:12;;;;;;;;;;;13.90;99.90;;;;;;6242021;22;20251;-79
2022/07/16 03:23:39;;;;;;;;;;;13.90;99.90;;;;;;6227611;22;20022;-81
2022/07/16 03:26:05;;;;;;;;;;;13.90;99.90;;;;;;6243933;22;19973;-80
2022/07/16 03:28:31;;;;;;;;;;;13.90;99.90;;;;;;6242209;22;19915;-80
2022/07/16 03:30:58;;;;;;;;;;;13.90;99.90;;;;;;6237918;22;19943;-79
2022/07/16 03:33:24;;;;;;;;;;;13.80;99.90;;;;;;6267188;22;20297;-80
2022/07/16 03:35:49;;;;;;;;;;;13.90;99.90;;;;;;6206422;22;19947;-80
2022/07/16 03:41:10;;;;;;;;;;;14.00;99.90;;;;;;6242685;22;19919;-80
2022/07/16 03:43:36;;;;;;;;;;;13.80;99.90;;;;;;6230641;22;20247;-80
2022/07/16 03:46:02;;;;;;;;;;;13.90;99.90;;;;;;6241273;22;19921;-81
2022/07/16 03:48:29;;;;;;;;;;;13.90;99.90;;;;;;6242029;22;20274;-83
2022/07/16 03:50:55;;;;;;;;;;;13.90;99.90;;;;;;6258859;22;20362;-81
2022/07/16 03:53:21;;;;;;;;;;;13.90;99.90;;;;;;6242802;22;19915;-85
2022/07/16 03:55:46;;;;;;;;;;;13.90;99.90;;;;;;6232670;22;20507;-79
2022/07/16 03:58:13;;;;;;;;;;;13.90;99.90;;;;;;6241170;22;20512;-79
2022/07/16 04:00:39;;;;;;;;;;;13.90;99.90;;;;;;6230736;22;19919;-82
2022/07/16 04:03:05;;;;;;;;;;;13.90;99.90;;;;;;6241308;22;20430;-79
2022/07/16 04:25:27;;;;;;;;;;;13.70;99.90;;;;;;6265645;22;20043;-82
2022/07/16 04:27:56;;;;;;;;;;;13.70;99.90;;;;;;6240432;22;20023;-80
2022/07/16 04:30:40;;;;;;;;;;;13.70;99.90;;;;;;6215070;22;19915;-81
2022/07/16 04:33:15;;;;;;;;;;;13.80;99.90;;;;;;6238570;22;19992;-79
2022/07/16 04:35:41;;;;;;;;;;;14.00;99.90;;;;;;6212678;22;19919;-80
2022/07/16 04:38:08;;;;;;;;;;;13.90;99.90;;;;;;6213535;22;19924;-81
2022/07/16 04:40:34;;;;;;;;;;;14.00;99.90;;;;;;6215617;22;19919;-86
2022/07/16 04:43:20;;;;;;;;;;;14.00;99.90;;;;;;6245959;22;19976;-88
2022/07/16 04:46:13;;;;;;;;;;;14.10;99.90;;;;;;6246580;22;20212;-91
2022/07/16 04:48:40;;;;;;;;;;;14.20;99.90;;;;;;6246448;22;19926;-88
2022/07/16 04:51:09;;;;;;;;;;;14.20;99.90;;;;;;6228970;22;20051;-87
2022/07/16 04:54:00;;;;;;;;;;;14.30;99.90;;;;;;6339566;22;19979;-84
2022/07/16 04:56:28;;;;;;;;;;;14.40;99.90;;;;;;6341226;22;19914;-90
2022/07/16 04:59:03;;;;;;;;;;;14.50;99.90;;;;;;6341265;22;19910;-82
2022/07/16 05:01:32;;;;;;;;;;;14.60;99.90;;;;;;6288371;22;20261;-83
2022/07/16 05:03:58;;;;;;;;;;;14.70;99.90;;;;;;6288843;22;19914;-87
2022/07/16 05:06:28;;;;;;;;;;;14.60;99.90;;;;;;6314602;22;20455;-88
2022/07/16 05:09:13;;;;;;;;;;;14.60;99.90;;;;;;6316266;22;19968;-89
2022/07/16 05:11:41;;;;;;;;;;;14.60;99.90;;;;;;6341865;22;19914;-83
2022/07/16 05:14:25;;;;;;;;;;;14.60;99.90;;;;;;6342615;22;19996;-93
2022/07/16 05:16:55;;;;;;;;;;;14.70;99.90;;;;;;6334543;22;19914;-89
2022/07/16 05:19:23;;;;;;;;;;;14.60;99.90;;;;;;6305868;22;19914;-88
2022/07/16 05:25:11;;;;;;;;;;;14.50;99.90;;;;;;6337560;22;19921;-89
2022/07/16 05:27:45;;;;;;;;;;;14.50;99.90;;;;;;6311708;22;20029;-86
2022/07/16 05:30:15;;;;;;;;;;;14.60;99.90;;;;;;6333458;22;19914;-83
2022/07/16 05:32:47;;;;;;;;;;;14.50;99.90;;;;;;6305682;22;19921;-87
2022/07/16 05:35:38;;;;;;;;;;;14.40;99.90;;;;;;6280475;22;19923;-82
2022/07/16 05:41:33;;;;;;;;;;;14.40;99.90;;;;;;6333940;22;19909;-84
2022/07/16 05:44:01;;;;;;;;;;;14.00;99.90;;;;;;6305180;22;19919;-84
2022/07/16 05:46:44;;;;;;;;;;;14.50;99.90;;;;;;6305183;22;19921;-82
2022/07/16 05:49:10;;;;;;;;;;;14.50;99.90;;;;;;6328536;22;19923;-82
2022/07/16 05:51:45;;;;;;;;;;;14.50;99.90;;;;;;6304110;22;19919;-82
2022/07/16 05:54:11;;;;;;;;;;;14.60;99.90;;;;;;6303532;22;19922;-87
2022/07/16 05:56:58;;;;;;;;;;;14.50;99.90;;;;;;6305351;22;19930;-81
2022/07/16 05:59:24;;;;;;;;;;;14.50;99.90;;;;;;6305475;22;19919;-78
2022/07/16 06:01:50;;;;;;;;;;;14.60;99.90;;;;;;6303740;22;19952;-77
2022/07/16 06:04:22;;;;;;;;;;;14.60;99.90;;;;;;6304674;22;19953;-80
2022/07/16 06:06:48;;;;;;;;;;;14.60;99.90;;;;;;6330575;22;19989;-82
2022/07/16 06:09:15;;;;;;;;;;;14.60;99.90;;;;;;6304873;22;19954;-78
2022/07/16 06:11:41;;;;;;;;;;;14.70;99.90;;;;;;6331231;22;19925;-78
2022/07/16 06:14:07;;;;;;;;;;;14.80;99.90;;;;;;6305278;22;20040;-77
2022/07/16 06:16:33;;;;;;;;;;;15.20;99.90;;;;;;6304415;22;20365;-77
2022/07/16 06:18:59;;;;;;;;;;;16.00;99.90;;;;;;6329955;22;19993;-79
2022/07/16 06:21:25;;;;;;;;;;;16.80;99.90;;;;;;6306576;22;20380;-81
2022/07/16 06:23:51;;;;;;;;;;;17.30;99.90;;;;;;6304764;22;20281;-82
2022/07/16 06:26:16;;;;;;;;;;;17.50;99.90;;;;;;6303626;22;20358;-86
2022/07/16 06:28:42;;;;;;;;;;;17.20;99.90;;;;;;6301624;22;20315;-86
2022/07/16 06:31:09;;;;;;;;;;;16.80;99.90;;;;;;6301277;22;19915;-81
2022/07/16 06:33:34;;;;;;;;;;;16.50;99.90;;;;;;6326882;22;19915;-81
2022/07/16 06:36:01;;;;;;;;;;;16.20;99.90;;;;;;6275837;22;19923;-88
2022/07/16 06:38:26;;;;;;;;;;;16.00;99.90;;;;;;6303019;22;19950;-80
2022/07/16 06:40:52;;;;;;;;;;;16.00;99.90;;;;;;6301409;22;19914;-85
2022/07/16 06:43:18;;;;;;;;;;;16.00;99.90;;;;;;6327799;22;20114;-87
2022/07/16 06:45:44;;;;;;;;;;;16.00;99.90;;;;;;6276037;22;19944;-87
2022/07/16 06:48:09;;;;;;;;;;;16.30;99.90;;;;;;6329157;22;20009;-83
2022/07/16 06:50:35;;;;;;;;;;;16.40;99.90;;;;;;6301387;22;19910;-82
2022/07/16 06:53:01;;;;;;;;;;;16.90;99.90;;;;;;6329871;22;19963;-87
2022/07/16 06:55:27;;;;;;;;;;;17.50;99.90;;;;;;6278977;22;20201;-88
2022/07/16 06:57:52;;;;;;;;;;;18.30;99.90;;;;;;6277980;22;19932;-83
2022/07/16 07:00:18;;;;;;;;;;;18.90;99.90;;;;;;6328717;22;19919;-88
2022/07/16 07:02:44;;;;;;;;;;;19.30;99.90;;;;;;6302566;22;20005;-80
2022/07/16 07:05:09;;;;;;;;;;;19.50;99.90;;;;;;6300768;22;19971;-86
2022/07/16 07:07:55;;;;;;;;;;;19.60;99.90;;;;;;6333072;22;19930;-80
2022/07/16 07:10:21;;;;;;;;;;;19.60;99.90;;;;;;6333127;22;19918;-80
2022/07/16 07:12:47;;;;;;;;;;;19.60;99.90;;;;;;6329874;22;20377;-82
2022/07/16 07:15:12;;;;;;;;;;;19.40;99.40;;;;;;6331227;22;19918;-84
2022/07/16 07:17:38;;;;;;;;;;;18.80;98.60;;;;;;6329711;22;20401;-83
2022/07/16 07:20:06;;;;;;;;;;;19.10;98.60;;;;;;6274132;22;20384;-83
2022/07/16 07:22:31;;;;;;;;;;;19.60;98.60;;;;;;6328914;22;19914;-83
2022/07/16 07:24:57;;;;;;;;;;;19.80;97.30;;;;;;6302613;22;20403;-85
2022/07/16 07:27:23;;;;;;;;;;;20.00;93.90;;;;;;6303109;22;20286;-81
2022/07/16 07:29:49;;;;;;;;;;;20.20;94.80;;;;;;6302656;22;20247;-84
2022/07/16 07:32:15;;;;;;;;;;;20.20;92.60;;;;;;6328714;22;19915;-83
2022/07/16 07:34:40;;;;;;;;;;;20.50;93.40;;;;;;6274933;22;19967;-83
2022/07/16 07:37:06;;;;;;;;;;;20.20;91.60;;;;;;6303038;22;19914;-86
2022/07/16 07:39:32;;;;;;;;;;;20.00;93.30;;;;;;6303932;22;20319;-84
2022/07/16 07:41:58;;;;;;;;;;;19.60;94.80;;;;;;6329819;22;19926;-79
2022/07/16 07:44:23;;;;;;;;;;;18.80;95.70;;;;;;6302648;22;19918;-86
2022/07/16 07:46:49;;;;;;;;;;;18.30;96.60;;;;;;6302928;22;19918;-90
2022/07/16 07:49:15;;;;;;;;;;;17.90;99.30;;;;;;6300579;22;19914;-85
2022/07/16 07:51:41;;;;;;;;;;;17.40;99.90;;;;;;6301879;22;20329;-82
2022/07/16 07:54:06;;;;;;;;;;;17.10;99.90;;;;;;6302616;22;19918;-85
2022/07/16 07:56:32;;;;;;;;;;;16.90;99.90;;;;;;6304191;22;20331;-84
2022/07/16 07:58:58;;;;;;;;;;;16.70;99.90;;;;;;6329643;22;19914;-87
2022/07/16 08:01:24;;;;;;;;;;;16.50;99.90;;;;;;6329472;22;19918;-91
2022/07/16 08:03:50;;;;;;;;;;;16.40;99.90;;;;;;6326460;22;19926;-87
2022/07/16 08:06:15;;;;;;;;;;;16.30;99.90;;;;;;6301538;22;20148;-82
2022/07/16 08:08:41;;;;;;;;;;;16.30;99.90;;;;;;6302083;22;19915;-82
2022/07/16 08:11:08;;;;;;;;;;;16.20;99.90;;;;;;6277249;22;19910;-84
2022/07/16 08:13:33;;;;;;;;;;;16.40;99.90;;;;;;6299955;22;19991;-88
2022/07/16 08:15:59;;;;;;;;;;;16.50;99.90;;;;;;6303208;22;19922;-87
2022/07/16 08:18:25;;;;;;;;;;;16.60;99.90;;;;;;6301787;22;19939;-82
2022/07/16 08:20:51;;;;;;;;;;;16.50;99.90;;;;;;6308213;22;19950;-88
2022/07/16 08:25:44;;;;;;;;;;;16.50;99.90;;;;;;6278298;22;19922;-83
2022/07/16 08:26:02;;;;;;;;;;;16.50;99.90;;;;;;6329274;22;20352;-84
2022/07/16 08:28:28;;;;;;;;;;;16.60;99.90;;;;;;6302111;22;19958;-86
2022/07/16 08:30:54;;;;;;;;;;;16.80;99.90;;;;;;6302025;22;19919;-84
2022/07/16 08:33:19;;;;;;;;;;;16.80;99.90;;;;;;6327721;22;19992;-90
2022/07/16 08:35:45;;;;;;;;;;;16.70;99.90;;;;;;6328530;22;19914;-83
2022/07/16 08:38:11;;;;;;;;;;;16.60;99.90;;;;;;6276996;22;20145;-86
2022/07/16 08:40:41;;;;;;;;;;;16.40;99.90;;;;;;6277919;22;19949;-86
2022/07/16 08:43:07;;;;;;;;;;;16.30;99.90;;;;;;6304880;22;20005;-86
2022/07/16 08:45:36;;;;;;;;;;;16.30;99.90;;;;;;6304166;22;20212;-85
2022/07/16 08:48:03;;;;;;;;;;;16.20;99.90;;;;;;6303361;22;20326;-90
2022/07/16 08:50:28;;;;;;;;;;;16.20;99.90;;;;;;6304842;22;19918;-88
2022/07/16 08:52:57;;;;;;;;;;;16.20;99.90;;;;;;6305724;22;19984;-86
2022/07/16 08:55:23;;;;;;;;;;;16.20;99.90;;;;;;6304334;22;19917;-87
2022/07/16 08:57:49;;;;;;;;;;;16.40;99.90;;;;;;6330238;22;19995;-87
2022/07/16 09:00:16;;;;;;;;;;;16.60;99.90;;;;;;6331398;22;19922;-87
2022/07/16 09:02:41;;;;;;;;;;;17.40;99.90;;;;;;6330953;22;19990;-91
2022/07/16 09:05:08;;;;;;;;;;;18.10;99.90;;;;;;6302432;22;19953;-87
2022/07/16 09:07:34;;;;;;;;;;;18.50;99.90;;;;;;6303929;22;19948;-84
2022/07/16 09:10:00;;;;;;;;;;;18.20;99.90;;;;;;6329583;22;19989;-86
2022/07/16 09:12:35;;;;;;;;;;;17.80;99.90;;;;;;6305561;22;19914;-85
2022/07/16 09:15:20;;;;;;;;;;;17.50;99.90;;;;;;6330762;22;19915;-88
2022/07/16 09:17:46;;;;;;;;;;;17.80;99.90;;;;;;6306146;22;20377;-84
2022/07/16 09:20:28;;;;;;;;;;;18.30;99.90;;;;;;6304775;22;19941;-84
2022/07/16 09:22:54;;;;;;;;;;;18.60;99.90;;;;;;6305613;22;20317;-89
2022/07/16 09:25:19;;;;;;;;;;;18.80;99.90;;;;;;6306474;22;19940;-88
2022/07/16 09:27:45;;;;;;;;;;;18.80;99.90;;;;;;6280096;22;19914;-86
2022/07/16 09:30:21;;;;;;;;;;;18.60;99.90;;;;;;6279589;22;19926;-88
2022/07/16 09:32:48;;;;;;;;;;;18.40;99.90;;;;;;6331033;22;19914;-90
2022/07/16 09:35:15;;;;;;;;;;;18.60;99.90;;;;;;6302439;22;20279;-90
2022/07/16 09:37:46;;;;;;;;;;;18.90;99.90;;;;;;6303195;22;19918;-84
2022/07/16 09:40:12;;;;;;;;;;;18.80;99.90;;;;;;6330248;22;20252;-88
2022/07/16 09:42:38;;;;;;;;;;;18.90;99.90;;;;;;6331107;22;19919;-85
2022/07/16 09:45:07;;;;;;;;;;;19.00;99.90;;;;;;6329897;22;19919;-88
2022/07/16 09:47:33;;;;;;;;;;;19.30;99.90;;;;;;6304321;22;19914;-89
2022/07/16 09:50:00;;;;;;;;;;;19.50;99.90;;;;;;6277337;22;19938;-86
2022/07/16 09:52:30;;;;;;;;;;;19.60;99.60;;;;;;6303245;22;19925;-87
2022/07/16 09:54:56;;;;;;;;;;;19.50;99.40;;;;;;6329620;22;20328;-87
2022/07/16 09:57:25;;;;;;;;;;;19.10;99.80;;;;;;6304690;22;20261;-91
2022/07/16 09:59:51;;;;;;;;;;;19.10;99.90;;;;;;6331387;22;19925;-84
2022/07/16 10:02:18;;;;;;;;;;;19.30;99.90;;;;;;6305777;22;19918;-83
2022/07/16 10:05:04;;;;;;;;;;;19.30;99.90;;;;;;6282008;22;19936;-84
2022/07/16 10:07:31;;;;;;;;;;;19.00;99.30;;;;;;6298477;22;20008;-80
2022/07/16 10:09:57;;;;;;;;;;;18.70;99.60;;;;;;6321311;22;19915;-81
2022/07/16 10:12:23;;;;;;;;;;;18.80;99.90;;;;;;6329750;22;20001;-82
2022/07/16 10:14:50;;;;;;;;;;;18.50;99.90;;;;;;6302348;22;19921;-81
2022/07/16 10:17:18;;;;;;;;;;;18.50;99.90;;;;;;6304458;22;19997;-81
2022/07/16 10:19:44;;;;;;;;;;;18.50;99.90;;;;;;6328789;22;20104;-88
2022/07/16 10:22:13;;;;;;;;;;;18.80;99.90;;;;;;6303677;22;19925;-80
2022/07/16 10:24:45;;;;;;;;;;;18.90;99.90;;;;;;6330727;22;19967;-81
2022/07/16 10:27:20;;;;;;;;;;;18.90;99.90;;;;;;6329990;22;19953;-84
2022/07/16 10:29:45;;;;;;;;;;;18.90;99.90;;;;;;6303637;22;20350;-82
2022/07/16 10:32:30;;;;;;;;;;;19.00;99.90;;;;;;6303787;22;19914;-85
2022/07/16 10:35:00;;;;;;;;;;;19.20;99.90;;;;;;6329417;22;19972;-81
2022/07/16 10:37:28;;;;;;;;;;;19.30;99.90;;;;;;6329949;22;19993;-88
2022/07/16 10:39:59;;;;;;;;;;;19.40;99.90;;;;;;6303958;22;19918;-84
2022/07/16 10:42:25;;;;;;;;;;;19.10;98.90;;;;;;6330134;22;20006;-86
2022/07/16 10:44:51;;;;;;;;;;;18.80;99.90;;;;;;6303825;22;19919;-88
2022/07/16 10:47:17;;;;;;;;;;;18.70;99.90;;;;;;6305479;22;19929;-83
2022/07/16 10:49:43;;;;;;;;;;;18.90;99.90;;;;;;6329417;22;19954;-82
2022/07/16 10:52:14;;;;;;;;;;;19.20;99.90;;;;;;6304021;22;19925;-85
2022/07/16 10:54:41;;;;;;;;;;;19.50;99.90;;;;;;6280195;22;20026;-82
2022/07/16 10:57:08;;;;;;;;;;;19.70;99.90;;;;;;6308125;22;19969;-82
2022/07/16 10:59:37;;;;;;;;;;;20.00;99.90;;;;;;6333496;22;19919;-85
2022/07/16 11:02:21;;;;;;;;;;;19.90;98.10;;;;;;6332020;22;19921;-87
2022/07/16 11:04:48;;;;;;;;;;;19.90;98.80;;;;;;6329429;22;20251;-86
2022/07/16 11:07:14;;;;;;;;;;;19.90;98.40;;;;;;6303371;22;20292;-85
2022/07/16 11:09:42;;;;;;;;;;;20.10;97.00;;;;;;6305796;22;20036;-85
2022/07/16 11:12:13;;;;;;;;;;;19.80;95.60;;;;;;6303253;22;19924;-84
2022/07/16 11:14:40;;;;;;;;;;;19.80;95.00;;;;;;6303711;22;20510;-82
2022/07/16 11:17:06;;;;;;;;;;;19.70;95.90;;;;;;6330051;22;19915;-79
2022/07/16 11:19:44;;;;;;;;;;;19.80;95.40;;;;;;6328288;22;19921;-86
2022/07/16 11:22:12;;;;;;;;;;;20.00;94.10;;;;;;6329478;22;19977;-90
2022/07/16 11:24:45;;;;;;;;;;;20.00;93.30;;;;;;6278543;22;19922;-84
2022/07/16 11:27:11;;;;;;;;;;;20.20;94.10;;;;;;6304331;22;19914;-83
2022/07/16 11:29:37;;;;;;;;;;;20.30;93.00;;;;;;6303393;22;19921;-88
2022/07/16 11:32:03;;;;;;;;;;;20.30;91.60;;;;;;6303984;22;19914;-89
2022/07/16 11:34:32;;;;;;;;;;;20.10;91.00;;;;;;6328772;22;19918;-84
2022/07/16 11:36:58;;;;;;;;;;;20.20;91.90;;;;;;6277297;22;19914;-85
2022/07/16 11:39:25;;;;;;;;;;;20.20;91.70;;;;;;6306085;22;20344;-88
2022/07/16 11:41:52;;;;;;;;;;;20.30;91.40;;;;;;6306418;22;20353;-86
2022/07/16 11:44:19;;;;;;;;;;;20.30;90.70;;;;;;6305170;22;19914;-84
2022/07/16 11:46:46;;;;;;;;;;;20.20;86.60;;;;;;6329926;22;19922;-81
2022/07/16 11:49:25;;;;;;;;;;;20.10;84.60;;;;;;6303531;22;19914;-83
2022/07/16 11:51:52;;;;;;;;;;;20.10;85.80;;;;;;6301107;22;19915;-81
2022/07/16 11:54:18;;;;;;;;;;;20.10;84.20;;;;;;6304555;22;19915;-83
2022/07/16 11:56:44;;;;;;;;;;;20.10;85.30;;;;;;6278013;22;19921;-82
2022/07/16 11:59:18;;;;;;;;;;;19.90;83.40;;;;;;6329504;22;19942;-81
2022/07/16 12:01:43;;;;;;;;;;;20.00;84.80;;;;;;6329656;22;20048;-83
2022/07/16 12:04:12;;;;;;;;;;;20.00;84.30;;;;;;6302971;22;19922;-89
2022/07/16 12:06:44;;;;;;;;;;;19.90;83.50;;;;;;6296931;22;19918;-84
2022/07/16 12:09:11;;;;;;;;;;;19.70;84.80;;;;;;6302531;22;19942;-89
2022/07/16 12:11:37;;;;;;;;;;;19.60;83.70;;;;;;6329375;22;19918;-84
2022/07/16 12:14:03;;;;;;;;;;;19.40;86.40;;;;;;6303142;22;19915;-86
2022/07/16 12:16:29;;;;;;;;;;;19.40;88.60;;;;;;6303416;22;19925;-86
2022/07/16 12:19:05;;;;;;;;;;;19.20;89.50;;;;;;6303968;22;19914;-86
2022/07/16 12:21:33;;;;;;;;;;;18.90;89.50;;;;;;6301090;22;19917;-86
2022/07/16 12:23:59;;;;;;;;;;;19.40;89.70;;;;;;6331689;22;19918;-85
2022/07/16 12:26:30;;;;;;;;;;;19.30;89.60;;;;;;6306945;22;19914;-87
2022/07/16 12:28:55;;;;;;;;;;;19.10;89.90;;;;;;6280592;22;19983;-86
2022/07/16 12:31:24;;;;;;;;;;;19.10;90.50;;;;;;6304772;22;19948;-88
2022/07/16 12:33:52;;;;;;;;;;;19.30;92.50;;;;;;6330453;22;19918;-85
2022/07/16 12:36:20;;;;;;;;;;;19.40;90.20;;;;;;6303063;22;19914;-80
2022/07/16 12:38:51;;;;;;;;;;;19.30;90.70;;;;;;6305089;22;19918;-84
2022/07/16 12:41:20;;;;;;;;;;;19.20;90.90;;;;;;6332892;22;19945;-85
2022/07/16 12:43:50;;;;;;;;;;;19.00;90.80;;;;;;6307722;22;19914;-89
2022/07/16 12:46:17;;;;;;;;;;;18.80;91.20;;;;;;6331919;22;19915;-89
2022/07/16 12:48:47;;;;;;;;;;;18.80;93.00;;;;;;6330205;22;19949;-83
2022/07/16 12:51:15;;;;;;;;;;;18.90;92.10;;;;;;6303585;22;19930;-86
2022/07/16 12:53:42;;;;;;;;;;;19.00;90.80;;;;;;6306523;22;19914;-81
2022/07/16 12:58:56;;;;;;;;;;;19.00;91.90;;;;;;6308931;22;20327;-84
2022/07/16 13:01:22;;;;;;;;;;;18.90;91.70;;;;;;6306614;22;19914;-87
2022/07/16 13:03:51;;;;;;;;;;;18.70;91.80;;;;;;6279424;22;20365;-89
2022/07/16 13:06:16;;;;;;;;;;;18.70;92.30;;;;;;6278439;22;20638;-85
2022/07/16 13:08:43;;;;;;;;;;;18.80;93.40;;;;;;6305751;22;19953;-87
2022/07/16 13:11:09;;;;;;;;;;;18.70;91.60;;;;;;6306559;22;19915;-84
2022/07/16 13:13:36;;;;;;;;;;;18.80;92.10;;;;;;6331602;22;19922;-86
2022/07/16 13:16:02;;;;;;;;;;;18.80;92.90;;;;;;6304971;22;19918;-85
2022/07/16 13:18:28;;;;;;;;;;;18.80;92.60;;;;;;6304980;22;19918;-88
2022/07/16 13:20:54;;;;;;;;;;;19.00;93.30;;;;;;6329442;22;19915;-86
2022/07/16 13:23:21;;;;;;;;;;;19.10;93.70;;;;;;6278661;22;19982;-87
2022/07/16 13:25:50;;;;;;;;;;;19.20;93.10;;;;;;6304228;22;19921;-86
2022/07/16 13:28:19;;;;;;;;;;;19.00;91.60;;;;;;6329185;22;19918;-86
2022/07/16 13:30:46;;;;;;;;;;;18.70;91.70;;;;;;6302560;22;19917;-88
2022/07/16 13:33:13;;;;;;;;;;;18.70;91.80;;;;;;6329013;22;19968;-84
2022/07/16 13:35:40;;;;;;;;;;;18.50;92.20;;;;;;6324860;22;20385;-86
2022/07/16 13:38:06;;;;;;;;;;;18.50;92.80;;;;;;6301507;22;19918;-84
2022/07/16 13:40:33;;;;;;;;;;;18.60;93.20;;;;;;6328961;22;19918;-86
2022/07/16 13:43:02;;;;;;;;;;;18.70;93.70;;;;;;6329679;22;20359;-90
2022/07/16 13:45:27;;;;;;;;;;;18.90;92.20;;;;;;6304253;22;20206;-89
2022/07/16 13:47:53;;;;;;;;;;;18.60;91.70;;;;;;6278726;22;20390;-86
2022/07/16 13:50:20;;;;;;;;;;;18.60;91.40;;;;;;6325861;22;20246;-90
2022/07/16 13:52:46;;;;;;;;;;;18.60;92.40;;;;;;6302221;22;19990;-85
2022/07/16 13:55:12;;;;;;;;;;;18.60;91.20;;;;;;6303054;22;20405;-86
2022/07/16 14:00:27;;;;;;;;;;;18.70;92.20;;;;;;6329922;22;20343;-85
2022/07/16 14:02:53;;;;;;;;;;;18.10;91.60;;;;;;6303944;22;19940;-87
2022/07/16 14:05:20;;;;;;;;;;;18.50;92.70;;;;;;6276418;22;19918;-86
2022/07/16 15:06:55;;;;;;;;;;;18.50;96.80;;;;;;6311427;22;19940;-83
2022/07/16 15:09:21;;;;;;;;;;;18.30;96.50;;;;;;6276540;22;20077;-85
2022/07/16 15:12:11;;;;;;;;;;;18.10;97.10;;;;;;6302107;22;19918;-81
2022/07/16 15:18:15;;;;;;;;;;;18.60;97.90;;;;;;6264332;22;19913;-84
2022/07/16 15:20:44;;;;;;;;;;;18.00;98.80;;;;;;6258213;22;19945;-85
2022/07/16 15:23:38;;;;;;;;;;;17.70;99.10;;;;;;6302971;22;19993;-81
2022/07/16 15:26:12;;;;;;;;;;;17.80;99.00;;;;;;6276551;22;20334;-82
2022/07/16 15:28:40;;;;;;;;;;;17.70;99.90;;;;;;6304178;22;19919;-87
2022/07/16 15:31:56;;;;;;;;;;;18.00;99.90;;;;;;6304905;22;19917;-80
2022/07/16 15:37:48;;;;;;;;;;;17.90;99.90;;;;;;6325566;22;20250;-80
2022/07/16 15:40:14;;;;;;;;;;;18.20;99.70;;;;;;6300658;22;19922;-82
2022/07/16 15:42:59;;;;;;;;;;;18.50;99.90;;;;;;6266723;22;19964;-84
2022/07/16 15:48:48;;;;;;;;;;;18.00;99.50;;;;;;6334179;22;19917;-85
2022/07/16 15:51:14;;;;;;;;;;;18.40;98.80;;;;;;6275569;22;19922;-91
2022/07/16 15:53:40;;;;;;;;;;;18.00;98.60;;;;;;6294811;22;19914;-83
2022/07/16 15:56:06;;;;;;;;;;;18.40;98.20;;;;;;6278772;22;19914;-89
2022/07/16 15:58:32;;;;;;;;;;;18.50;98.70;;;;;;6307288;22;19968;-86
2022/07/16 16:00:58;;;;;;;;;;;18.40;97.70;;;;;;6271983;22;19994;-84
2022/07/16 16:03:24;;;;;;;;;;;18.40;96.70;;;;;;6305168;22;19946;-80
2022/07/16 16:05:50;;;;;;;;;;;18.40;95.70;;;;;;6318831;22;19918;-81
2022/07/16 16:08:34;;;;;;;;;;;18.40;94.60;;;;;;6302400;22;19915;-82
2022/07/16 16:11:02;;;;;;;;;;;18.30;94.50;;;;;;6299064;22;19942;-81
2022/07/16 16:13:28;;;;;;;;;;;18.30;95.10;;;;;;6304070;22;19941;-84